sensor_id;sensor_type;location;lat;lon;timestamp;P1;durP1;ratioP1;P2;durP2;ratioP2
37297;SDS011;30517;51.932;4.278;2022-07-10T00:00:23;2.50;;;0.68;;
37297;SDS011;30517;51.932;4.278;2022-07-10T00:03:04;2.35;;;0.95;;
37297;SDS011;30517;51.932;4.278;2022-07-10T00:05:45;2.15;;;0.90;;
37297;SDS011;30517;51.932;4.278;2022-07-10T00:08:26;1.77;;;0.68;;
37297;SDS011;30517;51.932;4.278;2022-07-10T00:11:07;2.50;;;1.00;;
37297;SDS011;30517;51.932;4.278;2022-07-10T00:13:48;3.08;;;0.90;;
37297;SDS011;30517;51.932;4.278;2022-07-10T00:16:29;3.65;;;0.98;;
37297;SDS011;30517;51.932;4.278;2022-07-10T00:19:09;2.08;;;0.73;;
37297;SDS011;30517;51.932;4.278;2022-07-10T00:21:50;1.98;;;0.93;;
37297;SDS011;30517;51.932;4.278;2022-07-10T00:24:31;2.20;;;0.90;;
37297;SDS011;30517;51.932;4.278;2022-07-10T00:27:12;1.08;;;0.85;;
37297;SDS011;30517;51.932;4.278;2022-07-10T00:29:52;1.60;;;0.70;;
37297;SDS011;30517;51.932;4.278;2022-07-10T00:32:33;2.17;;;0.63;;
37297;SDS011;30517;51.932;4.278;2022-07-10T00:35:14;2.28;;;0.80;;
37297;SDS011;30517;51.932;4.278;2022-07-10T00:37:55;1.48;;;0.70;;
37297;SDS011;30517;51.932;4.278;2022-07-10T00:40:35;1.95;;;0.70;;
37297;SDS011;30517;51.932;4.278;2022-07-10T00:43:16;2.47;;;1.00;;
37297;SDS011;30517;51.932;4.278;2022-07-10T00:45:57;5.20;;;1.00;;
37297;SDS011;30517;51.932;4.278;2022-07-10T00:48:38;1.85;;;0.80;;
37297;SDS011;30517;51.932;4.278;2022-07-10T00:51:19;2.25;;;0.90;;
37297;SDS011;30517;51.932;4.278;2022-07-10T00:54:02;2.37;;;0.73;;
37297;SDS011;30517;51.932;4.278;2022-07-10T00:56:43;2.30;;;0.90;;
37297;SDS011;30517;51.932;4.278;2022-07-10T00:59:24;2.55;;;0.73;;
37297;SDS011;30517;51.932;4.278;2022-07-10T01:02:06;1.77;;;0.80;;
37297;SDS011;30517;51.932;4.278;2022-07-10T01:04:47;2.10;;;0.98;;
37297;SDS011;30517;51.932;4.278;2022-07-10T01:07:28;2.90;;;1.10;;
37297;SDS011;30517;51.932;4.278;2022-07-10T01:10:11;2.00;;;0.85;;
37297;SDS011;30517;51.932;4.278;2022-07-10T01:12:52;2.28;;;0.80;;
37297;SDS011;30517;51.932;4.278;2022-07-10T01:15:33;1.70;;;0.88;;
37297;SDS011;30517;51.932;4.278;2022-07-10T01:18:16;2.15;;;1.00;;
37297;SDS011;30517;51.932;4.278;2022-07-10T01:20:56;2.35;;;0.75;;
37297;SDS011;30517;51.932;4.278;2022-07-10T01:23:37;2.20;;;0.73;;
37297;SDS011;30517;51.932;4.278;2022-07-10T01:26:19;2.15;;;0.93;;
37297;SDS011;30517;51.932;4.278;2022-07-10T01:29:02;2.05;;;0.98;;
37297;SDS011;30517;51.932;4.278;2022-07-10T01:31:44;2.22;;;0.80;;
37297;SDS011;30517;51.932;4.278;2022-07-10T01:34:26;1.42;;;0.57;;
37297;SDS011;30517;51.932;4.278;2022-07-10T01:37:07;2.53;;;0.90;;
37297;SDS011;30517;51.932;4.278;2022-07-10T01:39:47;2.55;;;1.13;;
37297;SDS011;30517;51.932;4.278;2022-07-10T01:42:28;2.45;;;0.93;;
37297;SDS011;30517;51.932;4.278;2022-07-10T01:45:09;3.13;;;0.77;;
37297;SDS011;30517;51.932;4.278;2022-07-10T01:47:50;1.70;;;0.80;;
37297;SDS011;30517;51.932;4.278;2022-07-10T01:50:32;2.50;;;0.77;;
37297;SDS011;30517;51.932;4.278;2022-07-10T01:53:13;1.63;;;0.68;;
37297;SDS011;30517;51.932;4.278;2022-07-10T01:55:54;3.20;;;1.00;;
37297;SDS011;30517;51.932;4.278;2022-07-10T01:58:36;1.23;;;0.50;;
37297;SDS011;30517;51.932;4.278;2022-07-10T02:01:17;2.05;;;0.73;;
37297;SDS011;30517;51.932;4.278;2022-07-10T02:03:58;2.10;;;0.50;;
37297;SDS011;30517;51.932;4.278;2022-07-10T02:06:57;1.83;;;0.73;;
37297;SDS011;30517;51.932;4.278;2022-07-10T02:09:38;1.90;;;0.80;;
37297;SDS011;30517;51.932;4.278;2022-07-10T02:12:19;1.52;;;0.73;;
37297;SDS011;30517;51.932;4.278;2022-07-10T02:15:00;1.83;;;0.90;;
37297;SDS011;30517;51.932;4.278;2022-07-10T02:17:42;1.02;;;0.47;;
37297;SDS011;30517;51.932;4.278;2022-07-10T02:20:22;3.05;;;0.80;;
37297;SDS011;30517;51.932;4.278;2022-07-10T02:23:03;1.88;;;0.77;;
37297;SDS011;30517;51.932;4.278;2022-07-10T02:25:46;0.95;;;0.70;;
37297;SDS011;30517;51.932;4.278;2022-07-10T02:28:27;1.25;;;0.60;;
37297;SDS011;30517;51.932;4.278;2022-07-10T02:31:08;1.73;;;0.65;;
37297;SDS011;30517;51.932;4.278;2022-07-10T02:33:49;2.45;;;0.77;;
37297;SDS011;30517;51.932;4.278;2022-07-10T02:36:29;1.85;;;0.68;;
37297;SDS011;30517;51.932;4.278;2022-07-10T02:39:10;1.98;;;0.90;;
37297;SDS011;30517;51.932;4.278;2022-07-10T02:41:51;2.72;;;0.70;;
37297;SDS011;30517;51.932;4.278;2022-07-10T02:44:32;1.60;;;0.90;;
37297;SDS011;30517;51.932;4.278;2022-07-10T02:47:13;2.40;;;1.05;;
37297;SDS011;30517;51.932;4.278;2022-07-10T02:49:54;1.42;;;0.80;;
37297;SDS011;30517;51.932;4.278;2022-07-10T02:52:34;1.15;;;0.60;;
37297;SDS011;30517;51.932;4.278;2022-07-10T02:55:15;1.98;;;0.77;;
37297;SDS011;30517;51.932;4.278;2022-07-10T02:57:56;1.55;;;0.70;;
37297;SDS011;30517;51.932;4.278;2022-07-10T03:00:37;2.22;;;0.82;;
37297;SDS011;30517;51.932;4.278;2022-07-10T03:03:18;1.88;;;0.80;;
37297;SDS011;30517;51.932;4.278;2022-07-10T03:05:59;2.42;;;0.70;;
37297;SDS011;30517;51.932;4.278;2022-07-10T03:08:40;1.55;;;0.63;;
37297;SDS011;30517;51.932;4.278;2022-07-10T03:11:21;1.67;;;0.70;;
37297;SDS011;30517;51.932;4.278;2022-07-10T03:14:02;1.48;;;0.80;;
37297;SDS011;30517;51.932;4.278;2022-07-10T03:16:43;2.90;;;1.00;;
37297;SDS011;30517;51.932;4.278;2022-07-10T03:19:24;0.77;;;0.60;;
37297;SDS011;30517;51.932;4.278;2022-07-10T03:22:05;2.10;;;0.60;;
37297;SDS011;30517;51.932;4.278;2022-07-10T03:24:46;2.45;;;0.80;;
37297;SDS011;30517;51.932;4.278;2022-07-10T03:27:27;1.50;;;0.73;;
37297;SDS011;30517;51.932;4.278;2022-07-10T03:30:08;1.58;;;0.80;;
37297;SDS011;30517;51.932;4.278;2022-07-10T03:32:49;1.80;;;0.80;;
37297;SDS011;30517;51.932;4.278;2022-07-10T03:35:30;1.80;;;0.80;;
37297;SDS011;30517;51.932;4.278;2022-07-10T03:38:11;2.42;;;0.75;;
37297;SDS011;30517;51.932;4.278;2022-07-10T03:40:52;1.48;;;0.80;;
37297;SDS011;30517;51.932;4.278;2022-07-10T03:43:32;1.20;;;0.77;;
37297;SDS011;30517;51.932;4.278;2022-07-10T03:46:13;2.83;;;1.17;;
37297;SDS011;30517;51.932;4.278;2022-07-10T03:48:54;3.35;;;0.93;;
37297;SDS011;30517;51.932;4.278;2022-07-10T03:51:34;1.10;;;0.52;;
37297;SDS011;30517;51.932;4.278;2022-07-10T03:54:15;2.53;;;0.98;;
37297;SDS011;30517;51.932;4.278;2022-07-10T03:56:56;2.10;;;0.85;;
37297;SDS011;30517;51.932;4.278;2022-07-10T03:59:57;2.17;;;0.82;;
37297;SDS011;30517;51.932;4.278;2022-07-10T04:02:37;1.55;;;0.70;;
37297;SDS011;30517;51.932;4.278;2022-07-10T04:05:19;1.85;;;0.88;;
37297;SDS011;30517;51.932;4.278;2022-07-10T04:08:00;2.53;;;0.90;;
37297;SDS011;30517;51.932;4.278;2022-07-10T04:10:42;2.60;;;1.00;;
37297;SDS011;30517;51.932;4.278;2022-07-10T04:13:23;1.88;;;0.75;;
37297;SDS011;30517;51.932;4.278;2022-07-10T04:16:04;2.83;;;0.95;;
37297;SDS011;30517;51.932;4.278;2022-07-10T04:18:45;2.85;;;0.90;;
37297;SDS011;30517;51.932;4.278;2022-07-10T04:21:26;1.45;;;0.80;;
37297;SDS011;30517;51.932;4.278;2022-07-10T04:24:07;1.85;;;0.85;;
37297;SDS011;30517;51.932;4.278;2022-07-10T04:26:47;1.63;;;0.70;;
37297;SDS011;30517;51.932;4.278;2022-07-10T04:29:28;1.50;;;0.80;;
37297;SDS011;30517;51.932;4.278;2022-07-10T04:32:09;4.13;;;0.82;;
37297;SDS011;30517;51.932;4.278;2022-07-10T04:34:50;2.45;;;0.70;;
37297;SDS011;30517;51.932;4.278;2022-07-10T04:37:31;2.05;;;1.00;;
37297;SDS011;30517;51.932;4.278;2022-07-10T04:40:14;3.93;;;1.10;;
37297;SDS011;30517;51.932;4.278;2022-07-10T04:42:55;1.13;;;0.60;;
37297;SDS011;30517;51.932;4.278;2022-07-10T04:45:36;2.70;;;0.80;;
37297;SDS011;30517;51.932;4.278;2022-07-10T04:48:19;3.65;;;0.93;;
37297;SDS011;30517;51.932;4.278;2022-07-10T04:51:00;1.38;;;0.85;;
37297;SDS011;30517;51.932;4.278;2022-07-10T04:53:41;1.30;;;0.43;;
37297;SDS011;30517;51.932;4.278;2022-07-10T04:56:22;1.70;;;0.80;;
37297;SDS011;30517;51.932;4.278;2022-07-10T04:59:03;2.67;;;0.82;;
37297;SDS011;30517;51.932;4.278;2022-07-10T05:01:43;1.13;;;0.77;;
37297;SDS011;30517;51.932;4.278;2022-07-10T05:04:24;3.75;;;1.02;;
37297;SDS011;30517;51.932;4.278;2022-07-10T05:07:05;2.15;;;1.02;;
37297;SDS011;30517;51.932;4.278;2022-07-10T05:09:46;1.05;;;0.70;;
37297;SDS011;30517;51.932;4.278;2022-07-10T05:12:26;3.10;;;0.70;;
37297;SDS011;30517;51.932;4.278;2022-07-10T05:15:07;2.53;;;0.80;;
37297;SDS011;30517;51.932;4.278;2022-07-10T05:17:49;2.17;;;0.82;;
37297;SDS011;30517;51.932;4.278;2022-07-10T05:20:30;2.00;;;0.82;;
37297;SDS011;30517;51.932;4.278;2022-07-10T05:23:11;2.83;;;0.82;;
37297;SDS011;30517;51.932;4.278;2022-07-10T05:25:51;1.95;;;0.88;;
37297;SDS011;30517;51.932;4.278;2022-07-10T05:28:32;2.72;;;0.88;;
37297;SDS011;30517;51.932;4.278;2022-07-10T05:31:13;2.22;;;0.90;;
37297;SDS011;30517;51.932;4.278;2022-07-10T05:33:54;3.08;;;0.88;;
37297;SDS011;30517;51.932;4.278;2022-07-10T05:36:34;1.70;;;0.82;;
37297;SDS011;30517;51.932;4.278;2022-07-10T05:39:15;2.03;;;0.80;;
37297;SDS011;30517;51.932;4.278;2022-07-10T05:41:56;3.45;;;0.88;;
37297;SDS011;30517;51.932;4.278;2022-07-10T05:44:37;4.20;;;1.17;;
37297;SDS011;30517;51.932;4.278;2022-07-10T05:47:18;3.28;;;0.90;;
37297;SDS011;30517;51.932;4.278;2022-07-10T05:49:59;2.40;;;0.82;;
37297;SDS011;30517;51.932;4.278;2022-07-10T05:52:40;1.83;;;0.82;;
37297;SDS011;30517;51.932;4.278;2022-07-10T05:55:20;2.38;;;0.85;;
37297;SDS011;30517;51.932;4.278;2022-07-10T05:58:01;1.27;;;0.70;;
37297;SDS011;30517;51.932;4.278;2022-07-10T06:00:42;2.35;;;0.90;;
37297;SDS011;30517;51.932;4.278;2022-07-10T06:03:24;1.98;;;0.80;;
37297;SDS011;30517;51.932;4.278;2022-07-10T06:06:06;3.45;;;1.00;;
37297;SDS011;30517;51.932;4.278;2022-07-10T06:08:46;2.15;;;1.00;;
37297;SDS011;30517;51.932;4.278;2022-07-10T06:11:27;2.72;;;1.02;;
37297;SDS011;30517;51.932;4.278;2022-07-10T06:14:08;1.90;;;0.90;;
37297;SDS011;30517;51.932;4.278;2022-07-10T06:16:49;4.78;;;1.10;;
37297;SDS011;30517;51.932;4.278;2022-07-10T06:19:29;3.05;;;1.10;;
37297;SDS011;30517;51.932;4.278;2022-07-10T06:22:10;2.42;;;1.00;;
37297;SDS011;30517;51.932;4.278;2022-07-10T06:25:09;3.17;;;0.93;;
37297;SDS011;30517;51.932;4.278;2022-07-10T06:27:51;3.47;;;0.82;;
37297;SDS011;30517;51.932;4.278;2022-07-10T06:30:32;1.60;;;0.88;;
37297;SDS011;30517;51.932;4.278;2022-07-10T06:33:13;2.72;;;0.90;;
37297;SDS011;30517;51.932;4.278;2022-07-10T06:35:54;3.83;;;0.88;;
37297;SDS011;30517;51.932;4.278;2022-07-10T06:38:35;3.08;;;1.27;;
37297;SDS011;30517;51.932;4.278;2022-07-10T06:41:16;1.15;;;0.60;;
37297;SDS011;30517;51.932;4.278;2022-07-10T06:43:56;2.22;;;0.80;;
37297;SDS011;30517;51.932;4.278;2022-07-10T06:49:21;2.17;;;0.93;;
37297;SDS011;30517;51.932;4.278;2022-07-10T06:52:02;2.25;;;0.90;;
37297;SDS011;30517;51.932;4.278;2022-07-10T06:54:43;3.83;;;1.00;;
37297;SDS011;30517;51.932;4.278;2022-07-10T06:57:24;2.25;;;1.10;;
37297;SDS011;30517;51.932;4.278;2022-07-10T07:00:05;1.80;;;0.90;;
37297;SDS011;30517;51.932;4.278;2022-07-10T07:02:49;0.95;;;0.50;;
37297;SDS011;30517;51.932;4.278;2022-07-10T07:05:30;2.00;;;0.90;;
37297;SDS011;30517;51.932;4.278;2022-07-10T07:08:11;2.78;;;1.00;;
37297;SDS011;30517;51.932;4.278;2022-07-10T07:10:53;4.15;;;0.90;;
37297;SDS011;30517;51.932;4.278;2022-07-10T07:13:34;1.67;;;0.73;;
37297;SDS011;30517;51.932;4.278;2022-07-10T07:16:15;5.90;;;1.40;;
37297;SDS011;30517;51.932;4.278;2022-07-10T07:18:58;4.03;;;1.00;;
37297;SDS011;30517;51.932;4.278;2022-07-10T07:21:39;2.17;;;0.80;;
37297;SDS011;30517;51.932;4.278;2022-07-10T07:24:39;4.10;;;1.17;;
37297;SDS011;30517;51.932;4.278;2022-07-10T07:27:20;4.03;;;1.10;;
37297;SDS011;30517;51.932;4.278;2022-07-10T07:30:01;2.55;;;1.05;;
37297;SDS011;30517;51.932;4.278;2022-07-10T07:32:44;0.77;;;0.70;;
37297;SDS011;30517;51.932;4.278;2022-07-10T07:35:26;2.17;;;0.90;;
37297;SDS011;30517;51.932;4.278;2022-07-10T07:38:07;3.83;;;0.95;;
37297;SDS011;30517;51.932;4.278;2022-07-10T07:40:48;1.45;;;0.70;;
37297;SDS011;30517;51.932;4.278;2022-07-10T07:43:28;2.33;;;0.90;;
37297;SDS011;30517;51.932;4.278;2022-07-10T07:46:09;1.30;;;0.75;;
37297;SDS011;30517;51.932;4.278;2022-07-10T07:48:50;4.05;;;0.90;;
37297;SDS011;30517;51.932;4.278;2022-07-10T07:51:31;1.63;;;0.90;;
37297;SDS011;30517;51.932;4.278;2022-07-10T07:54:11;3.65;;;1.23;;
37297;SDS011;30517;51.932;4.278;2022-07-10T07:56:52;2.78;;;0.95;;
37297;SDS011;30517;51.932;4.278;2022-07-10T07:59:33;2.20;;;0.95;;
37297;SDS011;30517;51.932;4.278;2022-07-10T08:02:14;6.65;;;1.00;;
37297;SDS011;30517;51.932;4.278;2022-07-10T08:04:55;2.55;;;0.90;;
37297;SDS011;30517;51.932;4.278;2022-07-10T08:07:36;3.45;;;1.08;;
37297;SDS011;30517;51.932;4.278;2022-07-10T08:10:20;2.10;;;0.90;;
37297;SDS011;30517;51.932;4.278;2022-07-10T08:13:06;4.38;;;0.90;;
37297;SDS011;30517;51.932;4.278;2022-07-10T08:15:47;2.75;;;1.10;;
37297;SDS011;30517;51.932;4.278;2022-07-10T08:18:28;3.65;;;1.15;;
37297;SDS011;30517;51.932;4.278;2022-07-10T08:21:09;3.10;;;0.98;;
37297;SDS011;30517;51.932;4.278;2022-07-10T08:23:50;2.08;;;0.70;;
37297;SDS011;30517;51.932;4.278;2022-07-10T08:26:33;1.42;;;0.88;;
37297;SDS011;30517;51.932;4.278;2022-07-10T08:29:13;1.02;;;0.60;;
37297;SDS011;30517;51.932;4.278;2022-07-10T08:31:55;2.90;;;0.90;;
37297;SDS011;30517;51.932;4.278;2022-07-10T08:34:36;1.30;;;0.73;;
37297;SDS011;30517;51.932;4.278;2022-07-10T08:37:17;2.55;;;0.77;;
37297;SDS011;30517;51.932;4.278;2022-07-10T08:39:59;2.22;;;1.00;;
37297;SDS011;30517;51.932;4.278;2022-07-10T08:42:40;2.42;;;0.70;;
37297;SDS011;30517;51.932;4.278;2022-07-10T08:45:21;4.25;;;1.00;;
37297;SDS011;30517;51.932;4.278;2022-07-10T08:48:03;4.68;;;0.95;;
37297;SDS011;30517;51.932;4.278;2022-07-10T08:50:47;1.80;;;0.90;;
37297;SDS011;30517;51.932;4.278;2022-07-10T08:53:31;3.17;;;1.08;;
37297;SDS011;30517;51.932;4.278;2022-07-10T08:56:12;2.75;;;1.00;;
37297;SDS011;30517;51.932;4.278;2022-07-10T08:58:53;2.88;;;0.90;;
37297;SDS011;30517;51.932;4.278;2022-07-10T09:01:34;4.22;;;1.08;;
37297;SDS011;30517;51.932;4.278;2022-07-10T09:04:18;2.45;;;1.02;;
37297;SDS011;30517;51.932;4.278;2022-07-10T09:07:01;1.88;;;0.98;;
37297;SDS011;30517;51.932;4.278;2022-07-10T09:09:51;2.85;;;0.80;;
37297;SDS011;30517;51.932;4.278;2022-07-10T09:15:47;2.05;;;0.95;;
37297;SDS011;30517;51.932;4.278;2022-07-10T09:18:29;2.38;;;0.75;;
37297;SDS011;30517;51.932;4.278;2022-07-10T09:21:10;1.60;;;0.80;;
37297;SDS011;30517;51.932;4.278;2022-07-10T09:23:51;3.00;;;0.75;;
37297;SDS011;30517;51.932;4.278;2022-07-10T09:26:35;2.88;;;0.80;;
37297;SDS011;30517;51.932;4.278;2022-07-10T09:29:18;2.88;;;0.88;;
37297;SDS011;30517;51.932;4.278;2022-07-10T09:31:59;2.78;;;1.30;;
37297;SDS011;30517;51.932;4.278;2022-07-10T09:34:42;2.00;;;0.90;;
37297;SDS011;30517;51.932;4.278;2022-07-10T09:37:26;2.25;;;0.88;;
37297;SDS011;30517;51.932;4.278;2022-07-10T09:40:09;4.23;;;0.93;;
37297;SDS011;30517;51.932;4.278;2022-07-10T09:42:50;1.80;;;0.60;;
37297;SDS011;30517;51.932;4.278;2022-07-10T09:45:30;3.58;;;0.77;;
37297;SDS011;30517;51.932;4.278;2022-07-10T09:48:11;1.65;;;0.80;;
37297;SDS011;30517;51.932;4.278;2022-07-10T09:50:56;3.97;;;1.00;;
37297;SDS011;30517;51.932;4.278;2022-07-10T09:53:37;4.20;;;0.90;;
37297;SDS011;30517;51.932;4.278;2022-07-10T09:56:22;3.00;;;1.00;;
37297;SDS011;30517;51.932;4.278;2022-07-10T09:59:08;2.20;;;0.90;;
37297;SDS011;30517;51.932;4.278;2022-07-10T10:01:50;1.45;;;0.80;;
37297;SDS011;30517;51.932;4.278;2022-07-10T10:04:33;3.70;;;1.13;;
37297;SDS011;30517;51.932;4.278;2022-07-10T10:07:14;2.20;;;1.00;;
37297;SDS011;30517;51.932;4.278;2022-07-10T10:09:58;2.33;;;0.80;;
37297;SDS011;30517;51.932;4.278;2022-07-10T10:12:42;3.13;;;1.02;;
37297;SDS011;30517;51.932;4.278;2022-07-10T10:15:28;2.75;;;0.80;;
37297;SDS011;30517;51.932;4.278;2022-07-10T10:18:10;2.05;;;0.80;;
37297;SDS011;30517;51.932;4.278;2022-07-10T10:20:53;3.35;;;0.85;;
37297;SDS011;30517;51.932;4.278;2022-07-10T10:23:34;2.13;;;0.70;;
37297;SDS011;30517;51.932;4.278;2022-07-10T10:26:15;3.72;;;1.02;;
37297;SDS011;30517;51.932;4.278;2022-07-10T10:28:59;2.03;;;1.00;;
37297;SDS011;30517;51.932;4.278;2022-07-10T10:31:41;1.92;;;0.90;;
37297;SDS011;30517;51.932;4.278;2022-07-10T10:34:37;3.47;;;1.20;;
37297;SDS011;30517;51.932;4.278;2022-07-10T10:37:32;2.00;;;0.80;;
37297;SDS011;30517;51.932;4.278;2022-07-10T10:40:32;1.90;;;0.82;;
37297;SDS011;30517;51.932;4.278;2022-07-10T10:45:58;3.33;;;0.85;;
37297;SDS011;30517;51.932;4.278;2022-07-10T10:49:06;2.80;;;0.95;;
37297;SDS011;30517;51.932;4.278;2022-07-10T10:52:03;3.40;;;0.80;;
37297;SDS011;30517;51.932;4.278;2022-07-10T10:57:36;3.03;;;1.20;;
37297;SDS011;30517;51.932;4.278;2022-07-10T11:00:30;2.38;;;0.90;;
37297;SDS011;30517;51.932;4.278;2022-07-10T11:03:18;2.35;;;1.00;;
37297;SDS011;30517;51.932;4.278;2022-07-10T11:08:44;4.10;;;0.95;;
37297;SDS011;30517;51.932;4.278;2022-07-10T11:14:12;1.30;;;0.77;;
37297;SDS011;30517;51.932;4.278;2022-07-10T11:16:54;2.28;;;0.98;;
37297;SDS011;30517;51.932;4.278;2022-07-10T11:19:36;1.15;;;0.70;;
37297;SDS011;30517;51.932;4.278;2022-07-10T11:22:25;2.90;;;1.00;;
37297;SDS011;30517;51.932;4.278;2022-07-10T11:31:38;2.70;;;1.00;;
37297;SDS011;30517;51.932;4.278;2022-07-10T11:34:33;1.85;;;0.90;;
37297;SDS011;30517;51.932;4.278;2022-07-10T11:37:15;2.15;;;0.90;;
37297;SDS011;30517;51.932;4.278;2022-07-10T11:40:30;1.20;;;0.77;;
37297;SDS011;30517;51.932;4.278;2022-07-10T11:43:04;1.98;;;0.77;;
37297;SDS011;30517;51.932;4.278;2022-07-10T11:45:49;2.60;;;0.80;;
37297;SDS011;30517;51.932;4.278;2022-07-10T11:48:32;2.65;;;0.80;;
37297;SDS011;30517;51.932;4.278;2022-07-10T11:51:25;3.58;;;1.20;;
37297;SDS011;30517;51.932;4.278;2022-07-10T11:54:15;13.90;;;1.75;;
37297;SDS011;30517;51.932;4.278;2022-07-10T11:57:04;17.58;;;2.63;;
37297;SDS011;30517;51.932;4.278;2022-07-10T11:59:46;18.23;;;3.13;;
37297;SDS011;30517;51.932;4.278;2022-07-10T12:02:27;18.75;;;3.80;;
37297;SDS011;30517;51.932;4.278;2022-07-10T12:05:08;15.60;;;2.13;;
37297;SDS011;30517;51.932;4.278;2022-07-10T12:08:13;11.48;;;2.13;;
37297;SDS011;30517;51.932;4.278;2022-07-10T12:10:54;9.00;;;2.00;;
37297;SDS011;30517;51.932;4.278;2022-07-10T12:13:35;7.53;;;1.75;;
37297;SDS011;30517;51.932;4.278;2022-07-10T12:16:16;8.70;;;1.92;;
37297;SDS011;30517;51.932;4.278;2022-07-10T12:18:58;10.40;;;1.67;;
37297;SDS011;30517;51.932;4.278;2022-07-10T12:21:43;5.63;;;1.40;;
37297;SDS011;30517;51.932;4.278;2022-07-10T12:24:25;7.22;;;1.48;;
37297;SDS011;30517;51.932;4.278;2022-07-10T12:27:06;7.15;;;1.38;;
37297;SDS011;30517;51.932;4.278;2022-07-10T12:29:59;3.15;;;1.20;;
37297;SDS011;30517;51.932;4.278;2022-07-10T12:32:41;5.97;;;1.00;;
37297;SDS011;30517;51.932;4.278;2022-07-10T12:35:22;5.18;;;1.20;;
37297;SDS011;30517;51.932;4.278;2022-07-10T12:38:02;3.25;;;1.10;;
37297;SDS011;30517;51.932;4.278;2022-07-10T12:40:43;5.97;;;1.42;;
37297;SDS011;30517;51.932;4.278;2022-07-10T12:43:25;6.38;;;1.35;;
37297;SDS011;30517;51.932;4.278;2022-07-10T12:46:07;4.22;;;1.13;;
37297;SDS011;30517;51.932;4.278;2022-07-10T12:51:46;5.63;;;1.20;;
37297;SDS011;30517;51.932;4.278;2022-07-10T12:54:34;2.50;;;0.75;;
37297;SDS011;30517;51.932;4.278;2022-07-10T12:57:18;3.88;;;1.30;;
37297;SDS011;30517;51.932;4.278;2022-07-10T13:00:02;4.82;;;0.90;;
37297;SDS011;30517;51.932;4.278;2022-07-10T13:02:47;3.85;;;1.13;;
37297;SDS011;30517;51.932;4.278;2022-07-10T13:05:34;2.55;;;1.00;;
37297;SDS011;30517;51.932;4.278;2022-07-10T13:11:08;3.25;;;1.05;;
37297;SDS011;30517;51.932;4.278;2022-07-10T13:13:49;4.57;;;1.20;;
37297;SDS011;30517;51.932;4.278;2022-07-10T13:16:30;2.92;;;1.13;;
37297;SDS011;30517;51.932;4.278;2022-07-10T13:19:11;3.28;;;1.20;;
37297;SDS011;30517;51.932;4.278;2022-07-10T13:21:52;4.25;;;1.40;;
37297;SDS011;30517;51.932;4.278;2022-07-10T13:24:32;3.17;;;0.98;;
37297;SDS011;30517;51.932;4.278;2022-07-10T13:27:13;2.28;;;0.88;;
37297;SDS011;30517;51.932;4.278;2022-07-10T13:29:54;4.60;;;1.10;;
37297;SDS011;30517;51.932;4.278;2022-07-10T13:32:34;1.73;;;0.80;;
37297;SDS011;30517;51.932;4.278;2022-07-10T13:35:15;2.00;;;0.93;;
37297;SDS011;30517;51.932;4.278;2022-07-10T13:37:57;3.10;;;1.00;;
37297;SDS011;30517;51.932;4.278;2022-07-10T13:40:39;4.68;;;1.20;;
37297;SDS011;30517;51.932;4.278;2022-07-10T13:43:20;3.50;;;1.10;;
37297;SDS011;30517;51.932;4.278;2022-07-10T13:46:01;2.85;;;1.23;;
37297;SDS011;30517;51.932;4.278;2022-07-10T13:48:42;2.53;;;1.20;;
37297;SDS011;30517;51.932;4.278;2022-07-10T13:51:24;3.03;;;0.80;;
37297;SDS011;30517;51.932;4.278;2022-07-10T13:54:04;2.92;;;1.10;;
37297;SDS011;30517;51.932;4.278;2022-07-10T13:56:45;3.00;;;1.10;;
37297;SDS011;30517;51.932;4.278;2022-07-10T13:59:26;5.10;;;1.20;;
37297;SDS011;30517;51.932;4.278;2022-07-10T14:02:07;3.30;;;1.10;;
37297;SDS011;30517;51.932;4.278;2022-07-10T14:04:48;1.75;;;0.90;;
37297;SDS011;30517;51.932;4.278;2022-07-10T14:07:28;2.75;;;1.10;;
37297;SDS011;30517;51.932;4.278;2022-07-10T14:10:09;3.03;;;1.20;;
37297;SDS011;30517;51.932;4.278;2022-07-10T14:12:52;2.95;;;1.13;;
37297;SDS011;30517;51.932;4.278;2022-07-10T14:15:34;2.45;;;1.10;;
37297;SDS011;30517;51.932;4.278;2022-07-10T14:18:16;2.50;;;1.25;;
37297;SDS011;30517;51.932;4.278;2022-07-10T14:21:14;2.25;;;1.00;;
37297;SDS011;30517;51.932;4.278;2022-07-10T14:23:55;3.42;;;1.23;;
37297;SDS011;30517;51.932;4.278;2022-07-10T14:26:36;2.17;;;1.10;;
37297;SDS011;30517;51.932;4.278;2022-07-10T14:29:17;2.72;;;0.98;;
37297;SDS011;30517;51.932;4.278;2022-07-10T14:31:58;4.13;;;1.15;;
37297;SDS011;30517;51.932;4.278;2022-07-10T14:34:39;2.63;;;1.27;;
37297;SDS011;30517;51.932;4.278;2022-07-10T14:37:20;4.40;;;1.10;;
37297;SDS011;30517;51.932;4.278;2022-07-10T14:40:02;3.20;;;1.17;;
37297;SDS011;30517;51.932;4.278;2022-07-10T14:42:43;2.90;;;1.25;;
37297;SDS011;30517;51.932;4.278;2022-07-10T14:45:24;2.67;;;1.25;;
37297;SDS011;30517;51.932;4.278;2022-07-10T14:48:05;2.72;;;1.20;;
37297;SDS011;30517;51.932;4.278;2022-07-10T14:50:46;3.70;;;1.40;;
37297;SDS011;30517;51.932;4.278;2022-07-10T14:53:27;4.93;;;1.38;;
37297;SDS011;30517;51.932;4.278;2022-07-10T14:56:07;3.50;;;1.38;;
37297;SDS011;30517;51.932;4.278;2022-07-10T14:58:48;2.83;;;1.17;;
37297;SDS011;30517;51.932;4.278;2022-07-10T15:01:30;4.00;;;1.52;;
37297;SDS011;30517;51.932;4.278;2022-07-10T15:04:10;4.20;;;1.33;;
37297;SDS011;30517;51.932;4.278;2022-07-10T15:06:51;2.47;;;1.30;;
37297;SDS011;30517;51.932;4.278;2022-07-10T15:09:32;4.38;;;1.33;;
37297;SDS011;30517;51.932;4.278;2022-07-10T15:12:13;2.58;;;1.30;;
37297;SDS011;30517;51.932;4.278;2022-07-10T15:14:53;4.03;;;1.33;;
37297;SDS011;30517;51.932;4.278;2022-07-10T15:17:34;3.40;;;1.40;;
37297;SDS011;30517;51.932;4.278;2022-07-10T15:20:15;2.58;;;1.35;;
37297;SDS011;30517;51.932;4.278;2022-07-10T15:22:58;3.60;;;1.30;;
37297;SDS011;30517;51.932;4.278;2022-07-10T15:25:40;4.35;;;1.63;;
37297;SDS011;30517;51.932;4.278;2022-07-10T15:28:21;2.60;;;1.20;;
37297;SDS011;30517;51.932;4.278;2022-07-10T15:31:02;2.33;;;1.23;;
37297;SDS011;30517;51.932;4.278;2022-07-10T15:33:45;2.63;;;1.10;;
37297;SDS011;30517;51.932;4.278;2022-07-10T15:36:26;3.90;;;1.55;;
37297;SDS011;30517;51.932;4.278;2022-07-10T15:39:07;4.05;;;1.40;;
37297;SDS011;30517;51.932;4.278;2022-07-10T15:41:48;3.97;;;1.60;;
37297;SDS011;30517;51.932;4.278;2022-07-10T15:44:28;2.35;;;1.25;;
37297;SDS011;30517;51.932;4.278;2022-07-10T15:47:09;2.67;;;1.25;;
37297;SDS011;30517;51.932;4.278;2022-07-10T15:49:51;3.75;;;1.58;;
37297;SDS011;30517;51.932;4.278;2022-07-10T15:52:32;4.68;;;1.90;;
37297;SDS011;30517;51.932;4.278;2022-07-10T15:55:12;2.63;;;1.35;;
37297;SDS011;30517;51.932;4.278;2022-07-10T15:57:53;2.85;;;1.50;;
37297;SDS011;30517;51.932;4.278;2022-07-10T16:00:34;4.78;;;1.60;;
37297;SDS011;30517;51.932;4.278;2022-07-10T16:03:15;3.65;;;1.60;;
37297;SDS011;30517;51.932;4.278;2022-07-10T16:05:56;3.65;;;1.60;;
37297;SDS011;30517;51.932;4.278;2022-07-10T16:08:37;2.60;;;1.40;;
37297;SDS011;30517;51.932;4.278;2022-07-10T16:11:18;3.03;;;1.38;;
37297;SDS011;30517;51.932;4.278;2022-07-10T16:13:59;5.13;;;1.58;;
37297;SDS011;30517;51.932;4.278;2022-07-10T16:16:40;4.75;;;1.40;;
37297;SDS011;30517;51.932;4.278;2022-07-10T16:19:20;4.55;;;2.13;;
37297;SDS011;30517;51.932;4.278;2022-07-10T16:22:02;3.20;;;1.58;;
37297;SDS011;30517;51.932;4.278;2022-07-10T16:24:42;5.03;;;1.70;;
37297;SDS011;30517;51.932;4.278;2022-07-10T16:27:42;3.40;;;1.50;;
37297;SDS011;30517;51.932;4.278;2022-07-10T16:30:23;2.97;;;1.52;;
37297;SDS011;30517;51.932;4.278;2022-07-10T16:33:04;3.13;;;1.42;;
37297;SDS011;30517;51.932;4.278;2022-07-10T16:35:45;3.08;;;1.40;;
37297;SDS011;30517;51.932;4.278;2022-07-10T16:38:26;3.70;;;1.60;;
37297;SDS011;30517;51.932;4.278;2022-07-10T16:41:06;4.20;;;1.55;;
37297;SDS011;30517;51.932;4.278;2022-07-10T16:43:47;3.30;;;1.40;;
37297;SDS011;30517;51.932;4.278;2022-07-10T16:46:28;3.58;;;1.80;;